Capitol Logistics 3277




MBPV
Providenciales International Airport
Providenciales, TC
TJSJ
Luis Munoz Marin International Airport
San Juan, PR

Activity Log

Date Flight Route Aircraft Duration
04/14/2021 CPX3277 GTK A555 HARDE IDAHO RTE6 SJU SF34 1h 41m

Route Details

Aircraft Information
Primary: Saab 340AF
Backup: Not Available
Route Data
Distance: 467nm
Duration: 2h 29m
Recm'd Route: GTK A555 HARDE IDAHO RTE6 SJU
Origin Wx: MBPV 191100Z 10006KT 9999 SCT012 27/24 Q1016
Dest. Wx: TJSJ 191056Z 10006KT 9SM FEW029 SCT085 SCT110 27/23 A3010 RMK AO2 SLP191 HZ ALQDS T02670228
Notes: